createdAt,value
2018-03-06T00:00:07.533Z,145.55
2018-03-06T00:00:56.355Z,135.37
2018-03-06T00:01:45.659Z,132.15
2018-03-06T00:02:34.718Z,140.35
2018-03-06T00:03:23.953Z,127.95
2018-03-06T00:04:13.009Z,130.37
2018-03-06T00:05:02.277Z,121.22
2018-03-06T00:05:51.346Z,131.15
2018-03-06T00:06:40.418Z,116.70
2018-03-06T00:07:29.586Z,123.03
2018-03-06T00:08:18.644Z,125.68
2018-03-06T00:09:07.777Z,112.68
2018-03-06T00:09:56.846Z,112.82
2018-03-06T00:10:45.910Z,116.32
2018-03-06T00:11:34.987Z,114.12
2018-03-06T00:12:24.051Z,125.32
2018-03-06T00:13:14.063Z,117.60
2018-03-06T00:14:03.269Z,127.10
2018-03-06T00:14:52.428Z,126.03
2018-03-06T00:15:41.518Z,119.10
2018-03-06T00:16:30.590Z,112.32
2018-03-06T00:17:19.644Z,111.15
2018-03-06T00:18:08.731Z,111.32
2018-03-06T00:18:57.789Z,118.30
2018-03-06T00:19:46.962Z,98.15
2018-03-06T00:20:36.206Z,101.68
2018-03-06T00:21:25.260Z,97.75
2018-03-06T00:22:14.321Z,113.80
2018-03-06T00:23:03.414Z,108.30
2018-03-06T00:23:52.481Z,111.15
2018-03-06T00:24:41.533Z,114.45
2018-03-06T00:25:30.636Z,97.28
2018-03-06T00:26:19.700Z,101.47
2018-03-06T00:27:08.769Z,100.50
2018-03-06T00:27:57.822Z,102.87
2018-03-06T00:28:47.040Z,110.18
2018-03-06T00:29:36.091Z,96.47
2018-03-06T00:30:25.145Z,95.72
2018-03-06T00:31:14.341Z,98.18
2018-03-06T00:32:03.399Z,103.15
2018-03-06T00:32:52.498Z,119.90
2018-03-06T00:33:41.554Z,110.68
2018-03-06T00:34:30.657Z,100.07
2018-03-06T00:35:19.720Z,106.30
2018-03-06T00:36:08.797Z,101.35
2018-03-06T00:36:57.849Z,94.82
2018-03-06T00:37:46.901Z,95.00
2018-03-06T00:38:36.025Z,113.37
2018-03-06T00:39:25.069Z,104.57
2018-03-06T00:40:14.262Z,111.43
2018-03-06T00:41:03.338Z,111.28
2018-03-06T00:41:52.494Z,102.40
2018-03-06T00:42:41.575Z,127.50
2018-03-06T00:43:30.652Z,119.97
2018-03-06T00:44:19.813Z,136.23
2018-03-06T00:45:08.920Z,137.45
2018-03-06T00:45:57.973Z,113.75
2018-03-06T00:46:47.022Z,86.53
2018-03-06T00:47:36.084Z,115.90
2018-03-06T00:48:25.129Z,114.93
2018-03-06T00:49:14.258Z,133.57
2018-03-06T00:50:03.360Z,141.10
2018-03-06T00:50:52.434Z,108.20
2018-03-06T00:51:41.498Z,117.05
2018-03-06T00:52:30.552Z,119.32
2018-03-06T00:53:19.606Z,119.22
2018-03-06T00:54:08.656Z,109.55
2018-03-06T00:54:57.856Z,124.07
2018-03-06T00:55:47.041Z,100.62
2018-03-06T00:56:36.146Z,115.25
2018-03-06T00:57:25.204Z,122.53
2018-03-06T00:58:14.269Z,117.35
2018-03-06T00:59:03.319Z,107.32
2018-03-06T00:59:53.315Z,117.68
2018-03-06T01:00:42.374Z,111.97
2018-03-06T01:01:31.548Z,117.75
2018-03-06T01:02:20.608Z,176.00
2018-03-06T01:03:09.685Z,148.80
2018-03-06T01:03:58.740Z,132.57
2018-03-06T01:04:47.962Z,135.60
2018-03-06T01:05:37.025Z,155.40
2018-03-06T01:06:26.090Z,154.05
2018-03-06T01:07:15.206Z,172.75
2018-03-06T01:08:04.257Z,152.52
2018-03-06T01:08:53.313Z,148.45
2018-03-06T01:09:42.570Z,148.95
2018-03-06T01:10:31.624Z,154.70
2018-03-06T01:11:23.803Z,159.65
2018-03-06T01:12:12.874Z,148.35
2018-03-06T01:13:01.935Z,155.05
2018-03-06T01:13:50.984Z,154.10
2018-03-06T01:14:40.187Z,116.35
2018-03-06T01:15:29.235Z,128.35
2018-03-06T01:16:18.299Z,139.73
2018-03-06T01:17:07.476Z,149.90
2018-03-06T01:17:56.529Z,135.37
2018-03-06T01:18:45.698Z,152.10
2018-03-06T01:19:34.758Z,137.32
2018-03-06T01:20:23.846Z,128.43
2018-03-06T01:21:12.869Z,125.05
2018-03-06T01:22:02.006Z,116.40
2018-03-06T01:22:51.139Z,128.38
2018-03-06T01:23:40.310Z,104.78
2018-03-06T01:24:29.364Z,106.18
2018-03-06T01:25:18.616Z,112.18
2018-03-06T01:26:07.674Z,112.95
2018-03-06T01:26:56.751Z,98.50
2018-03-06T01:27:45.801Z,93.07
2018-03-06T01:28:34.889Z,94.78
2018-03-06T01:29:24.206Z,80.80
2018-03-06T01:30:13.259Z,76.45
2018-03-06T01:31:02.305Z,77.95
2018-03-06T01:31:51.374Z,80.25
2018-03-06T01:32:40.457Z,73.07
2018-03-06T01:33:29.493Z,80.45
2018-03-06T01:34:18.650Z,86.10
2018-03-06T01:35:07.702Z,86.57
2018-03-06T01:35:56.752Z,112.43
2018-03-06T01:36:45.827Z,151.25
2018-03-06T01:37:34.915Z,126.25
2018-03-06T01:38:24.000Z,120.72
2018-03-06T01:39:13.100Z,113.55
2018-03-06T01:40:02.202Z,108.70
2018-03-06T01:40:51.259Z,104.25
2018-03-06T01:41:40.432Z,99.13
2018-03-06T01:42:29.482Z,108.60
2018-03-06T01:43:21.137Z,97.50
2018-03-06T01:44:10.214Z,91.65
2018-03-06T01:44:59.414Z,100.10
2018-03-06T01:45:48.494Z,93.57
2018-03-06T01:46:37.694Z,99.43
2018-03-06T01:47:26.739Z,86.32
2018-03-06T01:48:15.788Z,91.43
2018-03-06T01:49:04.831Z,88.07
2018-03-06T01:49:53.936Z,84.85
2018-03-06T01:50:42.987Z,84.78
2018-03-06T01:51:43.849Z,80.87
2018-03-06T01:52:32.899Z,84.18
2018-03-06T01:53:22.582Z,86.87
2018-03-06T01:54:11.644Z,99.47
2018-03-06T01:55:00.692Z,95.60
2018-03-06T01:55:49.736Z,85.80
2018-03-06T01:56:38.782Z,89.28
2018-03-06T01:57:27.873Z,95.12
2018-03-06T01:58:16.989Z,92.62
2018-03-06T01:59:06.042Z,97.47
2018-03-06T01:59:55.122Z,93.93
2018-03-06T02:00:44.170Z,85.68
2018-03-06T02:01:33.260Z,81.72
2018-03-06T02:02:22.320Z,86.18
2018-03-06T02:03:11.405Z,85.87
2018-03-06T02:04:00.458Z,75.93
2018-03-06T02:04:49.498Z,79.05
2018-03-06T02:05:38.714Z,85.57
2018-03-06T02:06:27.777Z,82.60
2018-03-06T02:07:16.968Z,83.78
2018-03-06T02:08:09.533Z,88.95
2018-03-06T02:08:58.916Z,84.75
2018-03-06T02:09:48.209Z,83.90
2018-03-06T02:10:37.291Z,104.53
2018-03-06T02:11:26.480Z,72.35
2018-03-06T02:12:15.637Z,85.90
2018-03-06T02:13:07.114Z,151.95
2018-03-06T02:13:56.169Z,137.75
2018-03-06T02:14:45.287Z,96.32
2018-03-06T02:15:34.296Z,88.90
2018-03-06T02:16:23.381Z,107.37
2018-03-06T02:17:12.438Z,80.87
2018-03-06T02:18:01.606Z,68.90
2018-03-06T02:18:50.648Z,77.07
2018-03-06T02:19:39.690Z,68.62
2018-03-06T02:20:28.750Z,71.47
2018-03-06T02:21:17.810Z,78.93
2018-03-06T02:22:06.906Z,71.62
2018-03-06T02:22:55.974Z,65.85
2018-03-06T02:23:45.062Z,69.82
2018-03-06T02:24:34.120Z,68.35
2018-03-06T02:25:23.177Z,73.18
2018-03-06T02:26:12.425Z,68.45
2018-03-06T02:27:01.466Z,66.68
2018-03-06T02:27:50.503Z,65.97
2018-03-06T02:28:39.558Z,70.43
2018-03-06T02:29:28.878Z,60.35
2018-03-06T02:30:17.939Z,66.60
2018-03-06T02:31:07.154Z,61.15
2018-03-06T02:31:56.200Z,69.22
2018-03-06T02:32:45.252Z,68.80
2018-03-06T02:33:34.301Z,64.25
2018-03-06T02:34:23.371Z,66.35
2018-03-06T02:35:12.525Z,65.30
2018-03-06T02:36:01.692Z,64.40
2018-03-06T02:36:50.757Z,63.58
2018-03-06T02:37:40.015Z,61.97
2018-03-06T02:38:29.158Z,63.58
2018-03-06T02:39:18.202Z,61.75
2018-03-06T02:40:07.362Z,58.90
2018-03-06T02:40:56.413Z,53.35
2018-03-06T02:41:45.464Z,63.63
2018-03-06T02:42:34.623Z,61.80
2018-03-06T02:43:24.307Z,49.22
2018-03-06T02:44:13.362Z,49.67
2018-03-06T02:45:02.399Z,51.13
2018-03-06T02:45:51.666Z,51.17
2018-03-06T02:46:40.722Z,51.78
2018-03-06T02:47:29.841Z,43.53
2018-03-06T02:48:18.886Z,45.70
2018-03-06T02:49:07.936Z,35.85
2018-03-06T02:49:56.995Z,38.03
2018-03-06T02:50:46.140Z,38.60
2018-03-06T02:51:35.223Z,40.17
2018-03-06T02:52:24.414Z,39.83
2018-03-06T02:53:13.466Z,40.65
2018-03-06T02:54:02.520Z,41.65
2018-03-06T02:54:51.601Z,34.85
2018-03-06T02:55:40.748Z,46.65
2018-03-06T02:56:29.804Z,36.63
2018-03-06T02:57:19.094Z,39.83
2018-03-06T02:58:08.145Z,43.85
2018-03-06T02:58:57.476Z,43.20
2018-03-06T02:59:46.516Z,46.97
2018-03-06T03:00:35.570Z,50.42
2018-03-06T03:01:24.623Z,54.10
2018-03-06T03:02:13.785Z,62.00
2018-03-06T03:03:02.934Z,55.90
2018-03-06T03:03:51.975Z,64.03
2018-03-06T03:04:41.088Z,58.87
2018-03-06T03:05:30.146Z,122.25
2018-03-06T03:06:19.194Z,110.40
2018-03-06T03:07:08.275Z,89.10
2018-03-06T03:07:57.318Z,80.60
2018-03-06T03:08:46.705Z,59.55
2018-03-06T03:09:35.772Z,69.65
2018-03-06T03:10:24.877Z,67.85
2018-03-06T03:11:13.958Z,76.55
2018-03-06T03:12:03.183Z,72.97
2018-03-06T03:12:52.278Z,70.40
2018-03-06T03:13:41.329Z,72.95
2018-03-06T03:14:30.582Z,67.37
2018-03-06T03:15:19.633Z,67.22
2018-03-06T03:16:08.678Z,54.67
2018-03-06T03:16:57.801Z,57.55
2018-03-06T03:17:46.942Z,61.15
2018-03-06T03:18:36.030Z,57.33
2018-03-06T03:19:25.084Z,55.97
2018-03-06T03:20:14.147Z,51.33
2018-03-06T03:21:03.200Z,50.83
2018-03-06T03:21:52.236Z,47.65
2018-03-06T03:22:43.267Z,50.60
2018-03-06T03:23:32.314Z,53.83
2018-03-06T03:24:21.354Z,49.80
2018-03-06T03:25:10.402Z,52.72
2018-03-06T03:25:59.451Z,55.97
2018-03-06T03:26:48.546Z,47.97
2018-03-06T03:27:37.608Z,45.72
2018-03-06T03:28:27.170Z,43.42
2018-03-06T03:29:16.215Z,41.22
2018-03-06T03:30:05.468Z,36.22
2018-03-06T03:30:54.513Z,37.08
2018-03-06T03:31:43.814Z,38.63
2018-03-06T03:32:32.855Z,35.15
2018-03-06T03:33:21.949Z,31.60
2018-03-06T03:34:10.991Z,32.80
2018-03-06T03:35:00.039Z,36.17
2018-03-06T03:35:49.129Z,36.08
2018-03-06T03:36:38.232Z,32.88
2018-03-06T03:37:27.281Z,37.22
2018-03-06T03:38:16.381Z,34.58
2018-03-06T03:39:05.645Z,42.17
2018-03-06T03:39:54.704Z,42.80
2018-03-06T03:40:43.740Z,50.50
2018-03-06T03:41:32.797Z,39.75
2018-03-06T03:42:21.887Z,53.30
2018-03-06T03:43:10.964Z,53.90
2018-03-06T03:44:00.008Z,59.13
2018-03-06T03:44:49.092Z,48.25
2018-03-06T03:45:38.142Z,51.70
2018-03-06T03:46:27.182Z,45.10
2018-03-06T03:47:16.239Z,52.38
2018-03-06T03:48:05.288Z,45.47
2018-03-06T03:48:54.328Z,51.05
2018-03-06T03:49:43.497Z,46.08
2018-03-06T03:50:32.579Z,49.03
2018-03-06T03:51:21.630Z,44.33
2018-03-06T03:52:10.738Z,39.95
2018-03-06T03:53:02.864Z,42.08
2018-03-06T03:53:52.108Z,44.45
2018-03-06T03:54:41.171Z,42.92
2018-03-06T03:55:30.221Z,47.30
2018-03-06T03:56:19.737Z,61.80
2018-03-06T03:57:08.784Z,57.45
2018-03-06T03:57:57.845Z,53.53
2018-03-06T03:58:46.897Z,52.40
2018-03-06T03:59:35.927Z,54.58
2018-03-06T04:00:24.981Z,51.75
2018-03-06T04:01:14.072Z,50.92
2018-03-06T04:02:03.162Z,48.15
2018-03-06T04:02:52.207Z,45.42
2018-03-06T04:03:41.332Z,41.47
2018-03-06T04:04:30.494Z,48.53
2018-03-06T04:05:19.536Z,39.20
2018-03-06T04:06:08.591Z,36.00
2018-03-06T04:06:57.651Z,38.97
2018-03-06T04:07:46.822Z,42.03
2018-03-06T04:08:35.871Z,43.35
2018-03-06T04:09:28.106Z,46.25
2018-03-06T04:10:17.154Z,59.53
2018-03-06T04:11:06.211Z,44.38
2018-03-06T04:11:55.293Z,53.40
2018-03-06T04:12:44.342Z,56.65
2018-03-06T04:13:33.554Z,57.55
2018-03-06T04:14:22.597Z,52.35
2018-03-06T04:15:11.972Z,62.90
2018-03-06T04:16:01.030Z,60.75
2018-03-06T04:16:50.111Z,66.18
2018-03-06T04:17:39.155Z,52.40
2018-03-06T04:18:28.238Z,54.78
2018-03-06T04:19:17.287Z,62.78
2018-03-06T04:20:06.533Z,69.22
2018-03-06T04:20:55.661Z,57.35
2018-03-06T04:21:45.284Z,56.97
2018-03-06T04:22:34.327Z,68.05
2018-03-06T04:23:23.380Z,70.07
2018-03-06T04:24:12.445Z,79.57
2018-03-06T04:25:01.495Z,70.75
2018-03-06T04:25:50.592Z,74.95
2018-03-06T04:26:39.675Z,66.28
2018-03-06T04:27:28.722Z,71.35
2018-03-06T04:28:17.775Z,60.50
2018-03-06T04:29:06.820Z,60.42
2018-03-06T04:29:56.050Z,66.93
2018-03-06T04:30:45.103Z,65.47
2018-03-06T04:31:34.154Z,69.12
2018-03-06T04:32:23.323Z,69.47
2018-03-06T04:33:12.354Z,59.10
2018-03-06T04:34:01.509Z,56.95
2018-03-06T04:34:50.566Z,59.20
2018-03-06T04:35:39.620Z,53.87
2018-03-06T04:36:28.667Z,57.08
2018-03-06T04:37:17.714Z,113.62
2018-03-06T04:38:06.878Z,110.50
2018-03-06T04:38:55.923Z,111.12
2018-03-06T04:39:45.219Z,104.95
2018-03-06T04:40:34.442Z,119.13
2018-03-06T04:41:23.496Z,112.22
2018-03-06T04:42:12.556Z,102.25
2018-03-06T04:43:01.611Z,103.50
2018-03-06T04:43:50.759Z,95.12
2018-03-06T04:44:39.807Z,86.97
2018-03-06T04:45:28.846Z,92.00
2018-03-06T04:46:17.917Z,79.28
2018-03-06T04:47:07.032Z,86.90
2018-03-06T04:47:56.073Z,107.05
2018-03-06T04:48:45.334Z,118.53
2018-03-06T04:49:37.510Z,159.05
2018-03-06T04:50:26.577Z,164.82
2018-03-06T04:51:15.626Z,157.77
2018-03-06T04:52:04.709Z,122.10
2018-03-06T04:52:53.766Z,144.95
2018-03-06T04:53:42.822Z,139.48
2018-03-06T04:54:31.885Z,133.82
2018-03-06T04:55:20.978Z,120.10
2018-03-06T04:56:10.043Z,115.00
2018-03-06T04:56:59.125Z,110.32
2018-03-06T04:57:48.176Z,106.97
2018-03-06T04:58:37.334Z,101.93
2018-03-06T04:59:26.395Z,112.35
2018-03-06T05:00:15.445Z,112.10
2018-03-06T05:01:04.606Z,104.30
2018-03-06T05:01:53.661Z,96.25
2018-03-06T05:02:42.729Z,97.95
2018-03-06T05:03:31.779Z,105.68
2018-03-06T05:04:20.839Z,105.07
2018-03-06T05:05:09.909Z,105.12
2018-03-06T05:05:58.965Z,95.80
2018-03-06T05:06:48.133Z,91.22
2018-03-06T05:07:37.826Z,90.12
2018-03-06T05:08:26.877Z,87.60
2018-03-06T05:09:15.929Z,95.53
2018-03-06T05:10:04.976Z,89.37
2018-03-06T05:10:54.027Z,78.87
2018-03-06T05:11:43.114Z,88.85
2018-03-06T05:12:32.167Z,83.25
2018-03-06T05:13:21.213Z,87.40
2018-03-06T05:14:10.294Z,84.25
2018-03-06T05:14:59.342Z,80.60
2018-03-06T05:15:48.397Z,86.82
2018-03-06T05:16:37.550Z,92.82
2018-03-06T05:17:26.653Z,91.18
2018-03-06T05:18:15.698Z,68.68
2018-03-06T05:19:04.751Z,70.62
2018-03-06T05:19:53.802Z,64.20
2018-03-06T05:20:42.847Z,70.53
2018-03-06T05:21:32.006Z,349.05
2018-03-06T05:22:21.086Z,807.65
2018-03-06T05:23:10.145Z,378.52
2018-03-06T05:23:59.210Z,472.75
2018-03-06T05:24:48.268Z,163.62
2018-03-06T05:25:37.326Z,158.70
2018-03-06T05:26:26.382Z,123.10
2018-03-06T05:27:15.471Z,105.07
2018-03-06T05:28:04.526Z,79.35
2018-03-06T05:28:53.570Z,74.00
2018-03-06T05:29:42.632Z,58.97
2018-03-06T05:30:31.846Z,64.87
2018-03-06T05:31:20.890Z,77.72
2018-03-06T05:32:09.942Z,74.72
2018-03-06T05:32:59.019Z,75.90
2018-03-06T05:33:48.065Z,77.47
2018-03-06T05:34:37.272Z,70.22
2018-03-06T05:35:26.450Z,67.72
2018-03-06T05:36:15.569Z,62.95
2018-03-06T05:37:04.632Z,61.28
2018-03-06T05:37:53.675Z,62.58
2018-03-06T05:38:42.878Z,61.95
2018-03-06T05:39:31.941Z,68.20
2018-03-06T05:40:21.023Z,65.65
2018-03-06T05:41:10.152Z,69.18
2018-03-06T05:41:59.218Z,62.90
2018-03-06T05:42:48.360Z,66.32
2018-03-06T05:43:37.434Z,65.93
2018-03-06T05:44:26.486Z,54.42
2018-03-06T05:45:15.563Z,54.88
2018-03-06T05:46:04.782Z,57.22
2018-03-06T05:46:53.842Z,54.72
2018-03-06T05:47:42.895Z,54.85
2018-03-06T05:48:32.006Z,61.13
2018-03-06T05:49:21.067Z,106.32
2018-03-06T05:50:10.186Z,85.47
2018-03-06T05:50:59.222Z,83.87
2018-03-06T05:51:48.278Z,240.55
2018-03-06T05:52:37.390Z,158.32
2018-03-06T05:53:26.487Z,200.60
2018-03-06T05:54:15.765Z,366.80
2018-03-06T05:55:04.831Z,322.10
2018-03-06T05:55:53.894Z,225.23
2018-03-06T05:56:42.965Z,202.00
2018-03-06T05:57:32.034Z,200.50
2018-03-06T05:58:21.167Z,232.75
2018-03-06T05:59:11.482Z,232.68
2018-03-06T06:00:00.687Z,237.50
2018-03-06T06:00:50.538Z,257.08
2018-03-06T06:01:39.606Z,495.40
2018-03-06T06:02:28.767Z,1054.75
2018-03-06T06:03:17.865Z,1088.30
2018-03-06T06:04:07.029Z,485.13
2018-03-06T06:04:56.094Z,497.20
2018-03-06T06:05:45.160Z,416.20
2018-03-06T06:06:34.217Z,353.12
2018-03-06T06:07:23.537Z,415.38
2018-03-06T06:08:12.598Z,401.25
2018-03-06T06:09:01.677Z,352.73
2018-03-06T06:09:50.821Z,371.23
2018-03-06T06:10:39.889Z,368.67
2018-03-06T06:11:29.126Z,220.88
2018-03-06T06:12:18.228Z,245.63
2018-03-06T06:13:07.335Z,285.67
2018-03-06T06:13:56.398Z,162.65
2018-03-06T06:14:45.442Z,189.13
2018-03-06T06:15:34.510Z,144.60
2018-03-06T06:16:23.552Z,147.93
2018-03-06T06:17:12.602Z,149.77
2018-03-06T06:18:01.648Z,193.40
2018-03-06T06:18:50.685Z,186.70
2018-03-06T06:19:39.723Z,179.80
2018-03-06T06:20:28.764Z,221.95
2018-03-06T06:21:17.945Z,200.43
2018-03-06T06:22:06.981Z,174.52
2018-03-06T06:22:56.021Z,208.32
2018-03-06T06:23:45.117Z,184.13
2018-03-06T06:24:34.180Z,171.37
2018-03-06T06:25:23.218Z,174.02
2018-03-06T06:26:12.263Z,177.50
2018-03-06T06:27:01.309Z,195.73
2018-03-06T06:27:50.590Z,288.85
2018-03-06T06:28:39.734Z,271.27
2018-03-06T06:29:28.776Z,256.48
2018-03-06T06:30:17.817Z,291.77
2018-03-06T06:31:06.865Z,273.70
2018-03-06T06:31:55.900Z,295.52
2018-03-06T06:32:44.945Z,298.30
2018-03-06T06:33:33.989Z,482.35
2018-03-06T06:34:23.086Z,492.23
2018-03-06T06:35:12.132Z,444.67
2018-03-06T06:36:01.179Z,312.80
2018-03-06T06:36:50.231Z,305.90
2018-03-06T06:37:39.281Z,294.90
2018-03-06T06:38:28.482Z,234.23
2018-03-06T06:39:17.544Z,240.25
2018-03-06T06:40:06.636Z,224.05
2018-03-06T06:40:55.685Z,252.50
2018-03-06T06:41:44.973Z,255.48
2018-03-06T06:42:34.013Z,232.60
2018-03-06T06:43:23.060Z,289.02
2018-03-06T06:44:12.162Z,201.55
2018-03-06T06:45:01.262Z,270.80
2018-03-06T06:45:50.362Z,217.45
2018-03-06T06:46:39.418Z,193.98
2018-03-06T06:47:28.452Z,90.12
2018-03-06T06:48:17.592Z,99.82
2018-03-06T06:49:06.625Z,103.80
2018-03-06T06:49:55.667Z,119.47
2018-03-06T06:50:44.707Z,96.90
2018-03-06T06:51:33.765Z,115.85
2018-03-06T06:52:22.808Z,125.50
2018-03-06T06:53:11.850Z,117.15
2018-03-06T06:54:00.918Z,114.78
2018-03-06T06:54:50.170Z,156.98
2018-03-06T06:55:39.222Z,134.87
2018-03-06T06:56:28.252Z,106.70
2018-03-06T06:57:17.291Z,105.87
2018-03-06T06:58:06.318Z,143.85
2018-03-06T06:58:55.354Z,147.00
2018-03-06T06:59:44.691Z,134.25
2018-03-06T07:00:33.776Z,154.68
2018-03-06T07:01:22.828Z,197.43
2018-03-06T07:02:11.918Z,166.93
2018-03-06T07:03:00.989Z,138.15
2018-03-06T07:03:50.225Z,122.72
2018-03-06T07:04:39.286Z,138.37
2018-03-06T07:05:28.325Z,135.98
2018-03-06T07:06:17.362Z,120.82
2018-03-06T07:07:06.400Z,241.43
2018-03-06T07:07:55.443Z,225.45
2018-03-06T07:08:44.538Z,279.87
2018-03-06T07:09:33.611Z,146.13
2018-03-06T07:10:22.716Z,158.90
2018-03-06T07:11:11.903Z,134.68
2018-03-06T07:12:00.953Z,111.32
2018-03-06T07:12:49.990Z,113.88
2018-03-06T07:13:39.026Z,108.60
2018-03-06T07:14:28.064Z,76.93
2018-03-06T07:15:17.094Z,69.32
2018-03-06T07:16:06.134Z,87.35
2018-03-06T07:16:55.649Z,71.03
2018-03-06T07:17:44.682Z,55.00
2018-03-06T07:18:33.765Z,67.22
2018-03-06T07:19:22.796Z,60.03
2018-03-06T07:20:11.826Z,85.57
2018-03-06T07:21:00.853Z,82.90
2018-03-06T07:21:49.894Z,72.25
2018-03-06T07:22:38.922Z,110.95
2018-03-06T07:23:28.016Z,98.00
2018-03-06T07:24:17.102Z,100.75
2018-03-06T07:25:06.155Z,114.37
2018-03-06T07:25:55.201Z,97.78
2018-03-06T07:26:44.238Z,100.40
2018-03-06T07:27:33.275Z,91.75
2018-03-06T07:28:22.406Z,88.60
2018-03-06T07:29:11.450Z,78.40
2018-03-06T07:30:00.480Z,82.78
2018-03-06T07:30:49.598Z,74.18
2018-03-06T07:31:38.625Z,73.22
2018-03-06T07:32:27.655Z,75.87
2018-03-06T07:33:16.683Z,95.80
2018-03-06T07:34:05.809Z,71.40
2018-03-06T07:34:54.843Z,98.47
2018-03-06T07:35:43.955Z,121.37
2018-03-06T07:36:32.978Z,92.97
2018-03-06T07:37:22.012Z,72.07
2018-03-06T07:38:11.256Z,72.18
2018-03-06T07:39:00.282Z,69.55
2018-03-06T07:39:49.346Z,72.75
2018-03-06T07:40:38.378Z,60.70
2018-03-06T07:41:27.412Z,59.42
2018-03-06T07:42:16.437Z,59.22
2018-03-06T07:43:05.468Z,67.90
2018-03-06T07:43:54.548Z,63.25
2018-03-06T07:44:43.607Z,53.72
2018-03-06T07:45:32.735Z,51.22
2018-03-06T07:46:21.760Z,45.30
2018-03-06T07:47:10.785Z,58.72
2018-03-06T07:47:59.812Z,47.90
2018-03-06T07:48:48.971Z,45.90
2018-03-06T07:49:37.995Z,44.47
2018-03-06T07:50:27.021Z,53.30
2018-03-06T07:51:16.151Z,54.88
2018-03-06T07:52:05.177Z,62.22
2018-03-06T07:52:54.213Z,63.45
2018-03-06T07:53:43.247Z,63.53
2018-03-06T07:54:32.278Z,47.15
2018-03-06T07:55:21.311Z,58.97
2018-03-06T07:56:10.395Z,49.85
2018-03-06T07:56:59.434Z,41.40
2018-03-06T07:57:48.459Z,47.30
2018-03-06T07:58:37.480Z,37.78
2018-03-06T07:59:26.533Z,41.92
2018-03-06T08:00:15.559Z,45.55
2018-03-06T08:01:04.618Z,46.10
2018-03-06T08:01:53.638Z,58.15
2018-03-06T08:02:42.718Z,63.38
2018-03-06T08:03:31.747Z,95.30
2018-03-06T08:04:20.763Z,99.95
2018-03-06T08:05:09.862Z,83.30
2018-03-06T08:05:58.898Z,87.72
2018-03-06T08:06:47.926Z,92.53
2018-03-06T08:07:36.953Z,94.53
2018-03-06T08:08:26.253Z,113.10
2018-03-06T08:09:15.284Z,182.93
2018-03-06T08:10:04.351Z,115.65
2018-03-06T08:10:53.590Z,115.93
2018-03-06T08:11:42.680Z,115.32
2018-03-06T08:12:31.727Z,124.87
2018-03-06T08:13:20.760Z,106.30
2018-03-06T08:14:09.790Z,98.50
2018-03-06T08:14:58.838Z,91.97
2018-03-06T08:15:47.866Z,68.37
2018-03-06T08:16:36.926Z,65.05
2018-03-06T08:17:25.950Z,48.15
2018-03-06T08:18:14.982Z,48.80
2018-03-06T08:19:04.011Z,57.53
2018-03-06T08:19:53.040Z,43.97
2018-03-06T08:20:42.266Z,44.72
2018-03-06T08:21:31.300Z,47.20
2018-03-06T08:22:21.064Z,53.87
2018-03-06T08:23:10.094Z,54.35
2018-03-06T08:23:59.199Z,43.40
2018-03-06T08:24:48.247Z,40.70
2018-03-06T08:25:37.271Z,39.75
2018-03-06T08:26:26.411Z,44.08
2018-03-06T08:27:15.443Z,48.67
2018-03-06T08:28:04.463Z,43.38
2018-03-06T08:28:53.493Z,39.88
2018-03-06T08:29:42.529Z,47.42
2018-03-06T08:30:31.558Z,50.40
2018-03-06T08:31:20.595Z,132.27
2018-03-06T08:32:09.672Z,106.57
2018-03-06T08:32:58.866Z,80.60
2018-03-06T08:33:47.903Z,45.72
2018-03-06T08:34:36.950Z,34.05
2018-03-06T08:35:25.979Z,40.75
2018-03-06T08:36:15.031Z,29.17
2018-03-06T08:37:04.061Z,37.72
2018-03-06T08:37:53.141Z,97.00
2018-03-06T08:38:42.166Z,93.28
2018-03-06T08:39:31.202Z,131.93
2018-03-06T08:40:20.235Z,56.85
2018-03-06T08:41:09.262Z,54.90
2018-03-06T08:41:58.293Z,60.00
2018-03-06T08:42:47.327Z,84.62
2018-03-06T08:43:36.504Z,89.50
2018-03-06T08:44:25.558Z,207.35
2018-03-06T08:45:14.593Z,110.43
2018-03-06T08:46:03.625Z,65.32
2018-03-06T08:46:52.657Z,45.95
2018-03-06T08:47:41.701Z,51.28
2018-03-06T08:48:30.838Z,68.47
2018-03-06T08:49:19.871Z,56.45
2018-03-06T08:50:08.901Z,48.30
2018-03-06T08:50:57.930Z,53.03
2018-03-06T08:51:46.969Z,59.92
2018-03-06T08:52:35.993Z,52.95
2018-03-06T08:53:25.016Z,52.70
2018-03-06T08:54:14.107Z,54.90
2018-03-06T08:55:03.139Z,41.53
2018-03-06T08:55:52.168Z,41.50
2018-03-06T08:56:41.199Z,55.00
2018-03-06T08:57:30.279Z,44.63
2018-03-06T08:58:19.356Z,44.53
2018-03-06T08:59:08.394Z,43.28
2018-03-06T08:59:57.419Z,45.88
2018-03-06T09:00:46.454Z,57.15
2018-03-06T09:01:35.515Z,57.22
2018-03-06T09:02:24.593Z,56.53
2018-03-06T09:03:13.656Z,55.28
2018-03-06T09:04:02.702Z,56.85
2018-03-06T09:04:51.745Z,65.37
2018-03-06T09:05:40.788Z,61.80
2018-03-06T09:06:29.815Z,57.95
2018-03-06T09:07:18.843Z,69.20
2018-03-06T09:08:07.962Z,56.10
2018-03-06T09:08:57.001Z,56.40
2018-03-06T09:09:46.034Z,56.78
2018-03-06T09:10:35.060Z,68.65
2018-03-06T09:11:24.086Z,69.93
2018-03-06T09:12:13.178Z,65.00
2018-03-06T09:13:02.208Z,64.37
2018-03-06T09:13:51.275Z,72.75
2018-03-06T09:14:40.301Z,66.80
2018-03-06T09:15:29.340Z,86.63
2018-03-06T09:16:18.360Z,92.55
2018-03-06T09:17:07.399Z,103.45
2018-03-06T09:17:56.443Z,99.03
2018-03-06T09:18:45.471Z,83.85
2018-03-06T09:19:35.630Z,86.37
2018-03-06T09:20:24.661Z,85.32
2018-03-06T09:21:13.704Z,82.60
2018-03-06T09:22:02.729Z,61.13
2018-03-06T09:22:51.760Z,68.93
2018-03-06T09:23:40.786Z,74.80
2018-03-06T09:24:30.110Z,72.85
2018-03-06T09:25:19.137Z,64.80
2018-03-06T09:26:08.174Z,72.82
2018-03-06T09:26:57.204Z,62.00
2018-03-06T09:27:46.233Z,71.05
2018-03-06T09:28:35.263Z,74.37
2018-03-06T09:29:24.300Z,71.22
2018-03-06T09:30:13.396Z,72.55
2018-03-06T09:31:02.434Z,72.00
2018-03-06T09:31:51.463Z,69.65
2018-03-06T09:32:40.518Z,73.53
2018-03-06T09:33:29.549Z,67.97
2018-03-06T09:34:18.631Z,70.20
2018-03-06T09:35:07.664Z,61.67
2018-03-06T09:35:56.707Z,54.50
2018-03-06T09:36:45.775Z,58.75
2018-03-06T09:37:34.807Z,58.33
2018-03-06T09:38:24.083Z,54.72
2018-03-06T09:39:13.114Z,55.95
2018-03-06T09:40:02.279Z,56.08
2018-03-06T09:40:51.335Z,55.72
2018-03-06T09:41:40.406Z,54.15
2018-03-06T09:42:29.456Z,60.17
2018-03-06T09:43:18.491Z,52.92
2018-03-06T09:44:07.523Z,47.00
2018-03-06T09:44:56.561Z,47.25
2018-03-06T09:45:45.882Z,34.15
2018-03-06T09:46:34.932Z,36.60
2018-03-06T09:47:23.970Z,27.17
2018-03-06T09:48:13.032Z,21.58
2018-03-06T09:49:02.113Z,19.25
2018-03-06T09:49:51.200Z,16.12
2018-03-06T09:50:40.262Z,17.75
2018-03-06T09:51:30.021Z,10.70
2018-03-06T09:52:19.080Z,14.95
2018-03-06T09:53:08.168Z,98.07
2018-03-06T09:53:57.244Z,67.87
2018-03-06T09:54:46.274Z,60.00
2018-03-06T09:55:35.504Z,68.47
2018-03-06T09:56:24.536Z,65.78
2018-03-06T09:57:13.576Z,80.68
2018-03-06T09:58:02.609Z,70.47
2018-03-06T09:58:51.647Z,68.00
2018-03-06T09:59:40.775Z,58.45
2018-03-06T10:00:29.814Z,47.13
2018-03-06T10:01:18.857Z,61.15
2018-03-06T10:02:07.883Z,55.88
2018-03-06T10:02:56.916Z,61.08
2018-03-06T10:03:45.954Z,69.68
2018-03-06T10:04:34.992Z,89.28
2018-03-06T10:05:24.066Z,104.38
2018-03-06T10:06:13.115Z,123.85
2018-03-06T10:07:02.168Z,102.22
2018-03-06T10:07:51.225Z,97.45
2018-03-06T10:08:40.260Z,122.15
2018-03-06T10:09:29.304Z,94.37
2018-03-06T10:10:18.341Z,95.90
2018-03-06T10:11:07.467Z,98.28
2018-03-06T10:11:56.513Z,98.85
2018-03-06T10:12:45.555Z,109.32
2018-03-06T10:13:34.592Z,99.00
2018-03-06T10:14:23.639Z,97.50
2018-03-06T10:15:12.675Z,100.72
2018-03-06T10:16:01.713Z,72.55
2018-03-06T10:16:50.844Z,77.60
2018-03-06T10:17:39.906Z,91.32
2018-03-06T10:18:28.929Z,74.53
2018-03-06T10:19:17.976Z,62.10
2018-03-06T10:20:07.005Z,61.70
2018-03-06T10:20:56.047Z,77.35
2018-03-06T10:21:45.081Z,67.43
2018-03-06T10:22:34.171Z,54.00
2018-03-06T10:23:23.227Z,45.25
2018-03-06T10:24:12.282Z,41.53
2018-03-06T10:25:01.316Z,43.38